Time;durP1;ratioP1;P1;durP2;ratioP2;P2;SDS_P1;SDS_P2;PMS_P1;PMS_P2;Temp;Humidity;BMP_temperature;BMP_pressure;BME280_temperature;BME280_humidity;BME280_pressure;Samples;Min_cycle;Max_cycle;Signal;HPM_P1;HPM_P2
2021/03/02 00:01:59;;;;;;;15.70;10.18;;;;;;;9.01;42.16;102097.16;5013622;28;20137;-72
2021/03/02 00:04:29;;;;;;;15.45;11.85;;;;;;;8.86;43.81;102098.22;5012750;28;20050;-72
2021/03/02 00:06:56;;;;;;;18.55;10.68;;;;;;;8.84;43.65;102099.97;5012796;28;20058;-72
2021/03/02 00:09:26;;;;;;;16.95;10.57;;;;;;;8.99;42.51;102106.69;5013300;28;20042;-72
2021/03/02 00:11:53;;;;;;;13.73;10.40;;;;;;;8.81;43.90;102109.56;5012156;28;20142;-72
2021/03/02 00:14:20;;;;;;;16.08;11.10;;;;;;;8.89;44.49;102108.59;5012885;28;20390;-72
2021/03/02 00:16:54;;;;;;;15.85;11.50;;;;;;;8.94;43.67;102111.09;5013468;28;20384;-72
2021/03/02 00:19:40;;;;;;;17.08;11.00;;;;;;;8.93;43.30;102110.25;5012894;28;20121;-73
2021/03/02 00:22:28;;;;;;;21.38;11.27;;;;;;;9.04;42.53;102101.44;5011985;28;20045;-73
2021/03/02 00:24:58;;;;;;;14.18;10.20;;;;;;;8.95;42.32;102107.63;5008884;28;20104;-73
2021/03/02 00:27:24;;;;;;;15.05;10.35;;;;;;;8.92;42.64;102099.88;5012235;28;20520;-73
2021/03/02 00:29:51;;;;;;;17.25;11.20;;;;;;;8.81;43.24;102105.22;5011328;28;20133;-72
2021/03/02 00:32:22;;;;;;;14.70;11.57;;;;;;;8.76;44.18;102114.81;5006242;28;20042;-72
2021/03/02 00:34:49;;;;;;;16.75;12.15;;;;;;;8.72;43.95;102118.31;5005373;28;20034;-73
2021/03/02 00:37:17;;;;;;;24.00;11.75;;;;;;;8.75;43.50;102117.44;5006117;28;20038;-73
2021/03/02 00:39:43;;;;;;;16.80;10.70;;;;;;;8.87;42.91;102115.53;5006017;28;20062;-72
2021/03/02 00:42:10;;;;;;;13.73;9.48;;;;;;;8.80;43.86;102119.09;5005549;28;20073;-72
2021/03/02 00:44:37;;;;;;;15.25;10.40;;;;;;;8.61;45.12;102120.19;5020465;28;20049;-72
2021/03/02 00:47:04;;;;;;;20.67;11.85;;;;;;;8.62;44.98;102129.72;5007075;28;20100;-72
2021/03/02 00:49:30;;;;;;;20.77;10.52;;;;;;;8.59;44.31;102119.38;5006035;28;20124;-73
2021/03/02 00:51:57;;;;;;;16.00;10.43;;;;;;;8.58;43.87;102118.50;5006179;28;20049;-72
2021/03/02 00:54:24;;;;;;;13.07;9.85;;;;;;;8.66;43.43;102119.25;5005658;28;20396;-72
2021/03/02 00:56:50;;;;;;;16.23;10.68;;;;;;;8.55;43.98;102131.53;5007298;28;20088;-72
2021/03/02 00:59:19;;;;;;;13.55;9.48;;;;;;;8.54;44.87;102118.56;5010387;28;20042;-72
2021/03/02 01:01:47;;;;;;;17.17;10.35;;;;;;;8.46;43.98;102125.56;5008717;28;20041;-72
2021/03/02 01:04:14;;;;;;;16.88;10.82;;;;;;;8.43;44.71;102117.81;5009756;28;20104;-72
2021/03/02 01:06:41;;;;;;;14.57;10.00;;;;;;;8.39;45.41;102123.03;5008583;28;20058;-72
2021/03/02 01:09:09;;;;;;;18.15;11.18;;;;;;;8.31;45.72;102108.38;5024702;28;20133;-72
2021/03/02 01:11:39;;;;;;;16.42;10.15;;;;;;;8.38;45.74;102113.53;5012389;28;20500;-72
2021/03/02 01:14:07;;;;;;;15.18;10.75;;;;;;;8.37;46.36;102110.97;5009979;28;20120;-72
2021/03/02 01:16:34;;;;;;;18.52;11.23;;;;;;;8.32;46.22;102113.56;5009099;28;20065;-72
2021/03/02 01:19:00;;;;;;;23.42;11.48;;;;;;;8.20;47.09;102107.63;5009575;28;20069;-74
2021/03/02 01:21:27;;;;;;;17.40;12.40;;;;;;;8.25;46.86;102118.81;5009501;28;20042;-73
2021/03/02 01:23:53;;;;;;;17.27;12.20;;;;;;;8.30;46.28;102106.66;5009614;28;20045;-74
2021/03/02 01:26:20;;;;;;;15.77;11.05;;;;;;;8.23;47.22;102116.25;5010516;28;20561;-75
2021/03/02 01:28:46;;;;;;;15.32;11.00;;;;;;;8.17;45.76;102111.13;5009082;28;20053;-73
2021/03/02 01:31:13;;;;;;;15.40;10.65;;;;;;;8.17;46.68;102110.28;5009627;28;20054;-73
2021/03/02 01:33:40;;;;;;;14.90;10.60;;;;;;;8.19;46.77;102106.75;5008899;28;20443;-73
2021/03/02 01:36:07;;;;;;;17.92;12.13;;;;;;;8.29;45.09;102108.38;5009758;28;20141;-73
2021/03/02 01:38:33;;;;;;;22.90;13.68;;;;;;;8.25;45.46;102114.50;5008863;28;20038;-73
2021/03/02 01:41:00;;;;;;;18.30;12.98;;;;;;;8.16;45.48;102111.16;5009233;28;20048;-73
2021/03/02 01:43:36;;;;;;;;;;;;;;;8.27;45.18;102110.16;5008715;28;20262;-73
2021/03/02 01:46:04;;;;;;;19.23;13.93;;;;;;;8.46;44.17;102108.22;5009000;28;19936;-72
2021/03/02 01:48:36;;;;;;;18.92;13.80;;;;;;;8.50;43.94;102103.88;5008754;28;20042;-72
2021/03/02 01:51:04;;;;;;;33.95;13.23;;;;;;;8.64;43.38;102107.19;5008673;28;20548;-73
2021/03/02 01:53:31;;;;;;;17.80;12.70;;;;;;;8.47;43.43;102109.97;5008493;28;20037;-73
2021/03/02 01:55:58;;;;;;;14.10;11.70;;;;;;;8.53;43.41;102106.44;5008848;28;20484;-74
2021/03/02 01:58:25;;;;;;;14.77;10.38;;;;;;;8.62;42.73;102101.09;5008719;28;20046;-73
2021/03/02 02:00:55;;;;;;;12.85;10.60;;;;;;;8.49;43.05;102103.00;5007577;28;20392;-72
2021/03/02 02:03:41;;;;;;;13.35;9.02;;;;;;;8.36;43.43;102104.91;5007089;28;20058;-73
2021/03/02 02:06:18;;;;;;;20.05;10.70;;;;;;;8.30;44.46;102110.09;5008449;28;20041;-73
2021/03/02 02:08:54;;;;;;;14.88;10.35;;;;;;;8.19;44.80;102106.75;5009561;28;20045;-73
2021/03/02 02:11:29;;;;;;;13.02;10.07;;;;;;;8.22;45.05;102104.16;5008237;28;20504;-73
2021/03/02 02:14:33;;;;;;;11.57;7.75;;;;;;;8.39;43.79;102101.41;5007340;28;20492;-73
2021/03/02 02:17:05;;;;;;;18.23;8.90;;;;;;;8.28;43.66;102096.28;4985494;28;20050;-72
2021/03/02 02:19:53;;;;;;;14.35;9.45;;;;;;;8.27;44.69;102104.97;5005918;28;20048;-71
2021/03/02 02:22:20;;;;;;;12.63;8.40;;;;;;;8.24;44.25;102102.38;5007093;28;20042;-72
2021/03/02 02:25:20;;;;;;;14.07;8.43;;;;;;;8.43;43.81;102100.50;5008494;28;20092;-72
2021/03/02 02:27:50;;;;;;;16.02;10.00;;;;;;;8.37;44.18;102103.16;5007853;28;20050;-71
2021/03/02 02:30:17;;;;;;;13.07;9.68;;;;;;;8.24;45.08;102099.78;5008708;28;20119;-70
2021/03/02 02:32:47;;;;;;;13.27;9.07;;;;;;;8.12;45.33;102107.72;5008014;28;20172;-70
2021/03/02 02:35:15;;;;;;;24.98;9.98;;;;;;;7.95;45.79;102107.03;5008147;28;20040;-71
2021/03/02 02:37:44;;;;;;;14.52;9.38;;;;;;;7.91;46.00;102107.94;5008217;28;20064;-71
2021/03/02 02:40:13;;;;;;;10.68;9.13;;;;;;;7.93;46.39;102112.22;5008369;28;20515;-71
2021/03/02 02:42:42;;;;;;;13.82;8.57;;;;;;;7.93;44.78;102117.41;5006663;28;20534;-71
2021/03/02 02:45:10;;;;;;;13.73;9.73;;;;;;;7.97;46.41;102123.44;5007553;28;20125;-72
2021/03/02 02:47:37;;;;;;;13.85;8.27;;;;;;;8.14;44.96;102124.13;5007913;28;20066;-72
2021/03/02 02:50:06;;;;;;;13.65;8.60;;;;;;;7.86;45.61;102119.22;5008489;28;20030;-72
2021/03/02 02:52:33;;;;;;;11.15;8.43;;;;;;;7.79;47.54;102120.16;5008698;28;20152;-72
2021/03/02 02:55:02;;;;;;;13.05;7.85;;;;;;;7.68;46.70;102123.72;5008525;28;20045;-72
2021/03/02 02:57:32;;;;;;;17.48;10.40;;;;;;;7.88;44.65;102124.38;5007984;28;20157;-72
2021/03/02 03:00:02;;;;;;;11.63;8.75;;;;;;;7.83;44.54;102124.44;5007991;28;20050;-72
2021/03/02 03:02:29;;;;;;;15.48;10.05;;;;;;;7.75;45.82;102115.84;5007629;28;20077;-72
2021/03/02 03:05:24;;;;;;;15.07;9.10;;;;;;;7.66;46.16;102121.09;5007521;28;20046;-72
2021/03/02 03:08:01;;;;;;;13.23;7.73;;;;;;;7.87;45.55;102122.66;5005634;28;20600;-73
2021/03/02 03:10:29;;;;;;;12.63;9.40;;;;;;;7.76;44.99;102124.50;5006576;28;20310;-73
2021/03/02 03:13:02;;;;;;;15.43;8.55;;;;;;;7.64;45.27;102122.00;5006879;28;20400;-73
2021/03/02 03:15:30;;;;;;;15.05;9.43;;;;;;;7.59;45.68;102127.22;5007082;28;20485;-73
2021/03/02 03:17:58;;;;;;;13.05;8.00;;;;;;;7.64;46.10;102130.66;5007293;28;20065;-73
2021/03/02 03:20:28;;;;;;;13.02;8.52;;;;;;;7.78;45.17;102131.41;5006327;28;20045;-73
2021/03/02 03:22:56;;;;;;;10.30;7.97;;;;;;;7.73;46.37;102135.78;5006762;28;20101;-73
2021/03/02 03:25:22;;;;;;;13.73;9.68;;;;;;;8.03;44.29;102128.56;5007131;28;20066;-73
2021/03/02 03:27:58;;;;;;;15.45;10.02;;;;;;;8.11;43.49;102126.78;5007445;28;20118;-73
2021/03/02 03:30:27;;;;;;;15.70;9.25;;;;;;;7.99;44.37;102124.28;5005881;28;20077;-74
2021/03/02 03:33:03;;;;;;;16.77;9.68;;;;;;;7.78;46.51;102123.63;5006987;28;20060;-73
2021/03/02 03:35:30;;;;;;;17.48;9.27;;;;;;;7.95;45.99;102135.59;5007341;28;20331;-73
2021/03/02 03:37:56;;;;;;;12.82;9.27;;;;;;;7.56;47.20;102129.84;5007213;28;20042;-73
2021/03/02 03:40:23;;;;;;;16.23;9.95;;;;;;;7.78;46.18;102128.81;5005925;28;20046;-73
2021/03/02 03:42:49;;;;;;;19.25;10.35;;;;;;;7.59;47.23;102120.31;5006991;28;20092;-73
2021/03/02 03:45:16;;;;;;;14.45;8.93;;;;;;;7.48;47.48;102134.25;5007070;28;20105;-72
2021/03/02 03:47:44;;;;;;;15.70;9.07;;;;;;;7.35;48.29;102129.13;5006359;28;20132;-72
2021/03/02 03:50:12;;;;;;;12.88;9.25;;;;;;;7.50;46.97;102137.66;5006947;28;20072;-72
2021/03/02 03:52:52;;;;;;;14.32;8.77;;;;;;;7.64;46.22;102134.97;5006683;28;20403;-73
2021/03/02 03:55:22;;;;;;;13.95;9.30;;;;;;;7.65;45.46;102134.97;5006327;28;20124;-73
2021/03/02 03:57:48;;;;;;;12.40;8.40;;;;;;;7.63;45.61;102134.13;5006627;28;20442;-73
2021/03/02 04:00:15;;;;;;;16.27;8.15;;;;;;;7.52;47.44;102142.00;5005420;28;20076;-73
2021/03/02 04:02:42;;;;;;;18.55;9.32;;;;;;;7.43;47.18;102136.84;5006582;28;20046;-73
2021/03/02 04:05:12;;;;;;;14.13;8.68;;;;;;;7.39;47.39;102152.44;5006178;28;20125;-72
2021/03/02 04:07:38;;;;;;;12.65;9.10;;;;;;;7.31;47.13;102148.19;5006361;28;20076;-73
2021/03/02 04:10:07;;;;;;;15.25;10.70;;;;;;;7.46;47.84;102149.81;5009164;28;20424;-73
2021/03/02 04:12:42;;;;;;;12.23;9.35;;;;;;;7.49;47.68;102147.19;5006302;28;20046;-73
2021/03/02 04:15:25;;;;;;;15.77;10.73;;;;;;;7.43;46.66;102148.97;5006575;28;20037;-70
2021/03/02 04:17:54;;;;;;;11.05;8.32;;;;;;;7.44;47.73;102145.50;5007595;28;20042;-71
2021/03/02 04:20:21;;;;;;;12.45;9.15;;;;;;;7.51;48.20;102144.56;5011752;28;20551;-69
2021/03/02 04:22:48;;;;;;;12.95;8.40;;;;;;;7.53;47.45;102142.84;5011975;28;20137;-69
2021/03/02 04:25:14;;;;;;;11.65;8.10;;;;;;;7.51;48.13;102144.56;5009389;28;20121;-69
2021/03/02 04:27:43;;;;;;;11.05;7.80;;;;;;;7.47;47.35;102150.69;5009739;28;20054;-72
2021/03/02 04:30:12;;;;;;;11.80;8.55;;;;;;;7.43;46.45;102151.56;5010888;28;20046;-71
2021/03/02 04:32:44;;;;;;;16.80;10.18;;;;;;;7.44;46.30;102150.69;5011569;28;20042;-72
2021/03/02 04:35:16;;;;;;;14.30;8.52;;;;;;;7.44;46.02;102154.16;5001636;28;20042;-72
2021/03/02 04:37:50;;;;;;;12.80;9.13;;;;;;;7.43;47.41;102161.94;5009762;28;20503;-72
2021/03/02 04:40:20;;;;;;;11.93;7.72;;;;;;;7.41;46.91;102154.19;5009392;28;20040;-73
2021/03/02 04:42:57;;;;;;;11.60;7.70;;;;;;;7.33;48.57;102161.13;5010713;28;20100;-72
2021/03/02 04:45:59;;;;;;;15.20;9.35;;;;;;;7.32;48.65;102168.06;5009969;28;20045;-72
2021/03/02 04:48:28;;;;;;;17.05;9.32;;;;;;;7.18;48.74;102164.66;5010696;28;20045;-72
2021/03/02 04:51:03;;;;;;;19.65;9.52;;;;;;;7.16;48.64;102166.44;5011719;28;20062;-72
2021/03/02 04:53:37;;;;;;;14.70;9.05;;;;;;;7.19;47.62;102174.22;5012417;28;20489;-72
2021/03/02 04:56:04;;;;;;;13.48;8.77;;;;;;;7.07;48.14;102174.25;4978662;28;20073;-72
2021/03/02 04:58:31;;;;;;;13.55;8.65;;;;;;;7.14;48.54;102175.97;5010180;28;20113;-71
2021/03/02 05:01:18;;;;;;;15.48;8.85;;;;;;;7.11;47.42;102181.16;5010093;28;20052;-72
2021/03/02 05:03:55;;;;;;;14.07;10.25;;;;;;;7.11;48.62;102175.97;5011650;28;20062;-72
2021/03/02 05:06:40;;;;;;;11.07;8.88;;;;;;;6.97;46.64;102185.53;5010157;28;20053;-72
2021/03/02 05:09:12;;;;;;;14.23;8.90;;;;;;;7.18;46.44;102182.81;5012200;28;20050;-72
2021/03/02 05:11:48;;;;;;;13.77;9.20;;;;;;;6.99;47.87;102191.59;5011208;28;20045;-73
2021/03/02 05:14:37;;;;;;;25.35;9.00;;;;;;;6.93;48.21;102186.44;4980567;28;20073;-73
2021/03/02 05:17:09;;;;;;;11.65;9.00;;;;;;;6.66;47.89;102188.25;5011846;28;20129;-72
2021/03/02 05:19:46;;;;;;;14.48;9.50;;;;;;;6.64;48.63;102191.69;5011467;28;20046;-73
2021/03/02 05:22:55;;;;;;;20.08;10.77;;;;;;;6.46;49.28;102184.84;5011931;28;20038;-72
2021/03/02 05:25:31;;;;;;;13.75;9.45;;;;;;;6.57;48.65;102193.44;5006202;28;20527;-72
2021/03/02 05:27:58;;;;;;;14.10;11.05;;;;;;;6.52;49.18;102187.41;5010785;28;20061;-72
2021/03/02 05:30:25;;;;;;;13.73;9.95;;;;;;;6.46;48.50;102183.09;5010900;28;20044;-73
2021/03/02 05:32:51;;;;;;;14.63;9.95;;;;;;;6.44;49.27;102196.91;5012180;28;20085;-72
2021/03/02 05:35:18;;;;;;;14.98;9.13;;;;;;;6.59;49.27;102193.44;5009816;28;20066;-73
2021/03/02 05:37:44;;;;;;;13.20;10.15;;;;;;;6.49;49.45;102198.63;5011777;28;20050;-74
2021/03/02 05:40:11;;;;;;;16.80;9.93;;;;;;;6.41;49.75;102194.34;5011744;28;20053;-74
2021/03/02 05:42:38;;;;;;;20.10;9.95;;;;;;;6.42;49.32;102199.50;5012081;28;20528;-73
2021/03/02 05:45:05;;;;;;;15.52;9.43;;;;;;;6.42;50.04;102196.06;5015183;28;20077;-73
2021/03/02 05:47:33;;;;;;;14.07;9.77;;;;;;;6.38;50.01;102191.75;5015318;28;20125;-73
2021/03/02 05:50:02;;;;;;;13.95;10.05;;;;;;;6.37;50.04;102192.63;5015418;28;20046;-74
2021/03/02 05:52:30;;;;;;;18.42;9.98;;;;;;;6.52;49.06;102201.22;5015046;28;20480;-74
2021/03/02 05:55:00;;;;;;;18.30;11.60;;;;;;;6.46;49.34;102195.19;5014043;28;20042;-74
2021/03/02 05:57:27;;;;;;;18.98;9.68;;;;;;;6.44;49.35;102197.78;5014851;28;20077;-74
2021/03/02 05:59:54;;;;;;;15.25;11.73;;;;;;;6.67;48.25;102196.88;5015014;28;20484;-74
2021/03/02 06:02:21;;;;;;;19.27;10.43;;;;;;;6.44;49.08;102200.34;5013788;28;20088;-73
2021/03/02 06:04:49;;;;;;;17.48;11.35;;;;;;;6.47;48.84;102207.28;5013885;28;20387;-72
2021/03/02 06:07:16;;;;;;;15.45;9.73;;;;;;;6.70;48.12;102208.06;5014514;28;20104;-69
2021/03/02 06:09:46;;;;;;;15.27;10.70;;;;;;;6.49;48.24;102202.94;5015543;28;20072;-70
2021/03/02 06:12:12;;;;;;;15.90;11.02;;;;;;;6.29;48.58;102214.22;5015355;28;20050;-69
2021/03/02 06:14:39;;;;;;;19.42;11.93;;;;;;;6.54;48.75;102219.34;5014966;28;20120;-69
2021/03/02 06:17:07;;;;;;;16.67;10.63;;;;;;;6.48;48.62;102214.19;5015548;28;20046;-69
2021/03/02 06:19:42;;;;;;;16.95;10.77;;;;;;;6.83;47.60;102225.34;5015240;28;20049;-69
2021/03/02 06:22:33;;;;;;;13.80;10.75;;;;;;;7.01;47.02;102228.72;5015092;28;20104;-68
2021/03/02 06:25:01;;;;;;;19.65;10.90;;;;;;;6.92;47.27;102232.22;5014969;28;20045;-70
2021/03/02 06:27:29;;;;;;;16.83;10.32;;;;;;;7.12;46.35;102232.13;5015383;28;20067;-70
2021/03/02 06:30:12;;;;;;;17.95;10.77;;;;;;;6.96;47.58;102227.88;5014951;28;20461;-70
2021/03/02 06:32:45;;;;;;;15.27;10.40;;;;;;;7.44;46.30;102232.00;5013692;28;20053;-70
2021/03/02 06:35:28;;;;;;;19.23;10.82;;;;;;;7.76;45.26;102234.38;5014300;28;20092;-69
2021/03/02 06:37:54;;;;;;;16.75;12.02;;;;;;;7.70;45.49;102234.44;5015391;28;20543;-69
2021/03/02 06:40:42;;;;;;;19.40;10.70;;;;;;;8.66;43.48;102235.41;5014418;28;20069;-68
2021/03/02 06:43:29;;;;;;;15.23;11.85;;;;;;;8.93;41.85;102234.22;5012285;28;20089;-69
2021/03/02 06:45:59;;;;;;;15.68;10.02;;;;;;;9.13;41.78;102234.00;5013995;28;20074;-71
2021/03/02 06:48:29;;;;;;;15.38;10.00;;;;;;;9.55;41.65;102235.19;5009438;28;20389;-72
2021/03/02 06:50:58;;;;;;;17.02;10.80;;;;;;;9.73;41.07;102239.25;5008296;28;20076;-73
2021/03/02 06:53:26;;;;;;;13.60;9.50;;;;;;;10.02;41.37;102236.22;5011276;28;20440;-71
2021/03/02 06:55:53;;;;;;;11.48;10.10;;;;;;;10.36;40.55;102241.75;5008613;28;20066;-71
2021/03/02 06:58:24;;;;;;;14.13;9.70;;;;;;;10.70;39.93;102242.00;5009934;28;20543;-69
2021/03/02 07:00:54;;;;;;;19.33;11.70;;;;;;;11.28;38.22;102250.41;5014449;28;20132;-70
2021/03/02 07:03:32;;;;;;;17.38;11.35;;;;;;;11.42;38.34;102245.78;5011817;28;20073;-72
2021/03/02 07:06:04;;;;;;;16.65;10.95;;;;;;;11.59;38.05;102253.22;5013168;28;20060;-70
2021/03/02 07:08:32;;;;;;;26.92;12.10;;;;;;;11.93;37.56;102250.75;5013366;28;20053;-71
2021/03/02 07:11:02;;;;;;;16.67;12.25;;;;;;;12.45;37.25;102252.06;5027613;28;20530;-68
2021/03/02 07:13:31;;;;;;;17.90;11.32;;;;;;;12.98;36.19;102254.13;5010870;28;20064;-70
2021/03/02 07:15:58;;;;;;;23.30;11.27;;;;;;;12.79;36.41;102253.78;5007245;28;20056;-70
2021/03/02 07:18:31;;;;;;;14.50;9.75;;;;;;;13.52;35.10;102251.69;5006405;28;20064;-72
2021/03/02 07:21:01;;;;;;;18.77;10.45;;;;;;;14.01;34.41;102247.53;5005490;28;20042;-73
2021/03/02 07:23:30;;;;;;;24.98;10.98;;;;;;;14.29;33.87;102247.47;5004257;28;20048;-71
2021/03/02 07:25:57;;;;;;;35.13;12.50;;;;;;;14.51;32.99;102254.66;5008188;28;20456;-70
2021/03/02 07:28:32;;;;;;;20.10;13.10;;;;;;;13.53;34.29;102263.00;5006474;28;20042;-71
2021/03/02 07:30:59;;;;;;;19.00;10.95;;;;;;;13.56;36.12;102268.19;5006922;28;20444;-69
2021/03/02 07:33:26;;;;;;;25.00;10.45;;;;;;;14.86;34.08;102256.00;5006178;28;20038;-71
2021/03/02 07:35:59;;;;;;;22.30;11.90;;;;;;;15.35;33.51;102259.47;5006183;28;20033;-63
2021/03/02 07:38:26;;;;;;;29.83;11.23;;;;;;;15.67;32.99;102251.22;5009938;28;20074;-63
2021/03/02 07:40:54;;;;;;;23.77;12.95;;;;;;;16.19;32.10;102254.38;5011493;28;20030;-63
2021/03/02 07:43:35;;;;;;;29.15;11.93;;;;;;;16.44;31.67;102259.44;5008656;28;20544;-63
2021/03/02 07:46:37;;;;;;;20.25;12.15;;;;;;;15.83;32.92;102267.25;5005584;28;20530;-64
2021/03/02 07:49:22;;;;;;;21.45;11.70;;;;;;;16.44;32.15;102269.13;5006022;28;20045;-67
2021/03/02 07:52:01;;;;;;;13.93;11.32;;;;;;;16.88;32.05;102263.72;5006512;28;20120;-66
2021/03/02 07:54:33;;;;;;;17.38;9.88;;;;;;;17.10;31.87;102259.25;5005514;28;20469;-68
2021/03/02 07:57:26;;;;;;;15.88;10.75;;;;;;;17.59;30.92;102262.22;5006780;28;21548;-67
2021/03/02 08:00:28;;;;;;;21.02;11.15;;;;;;;18.07;30.06;102255.53;5008624;28;20052;-68
2021/03/02 08:03:18;;;;;;;23.02;11.80;;;;;;;17.11;30.37;102268.84;4951867;28;20098;-69
2021/03/02 08:05:50;;;;;;;21.08;11.00;;;;;;;17.69;30.43;102268.78;5006319;28;20081;-68
2021/03/02 08:08:23;;;;;;;23.92;11.10;;;;;;;17.94;30.71;102267.59;5012033;28;20096;-69
2021/03/02 08:10:54;;;;;;;30.60;13.63;;;;;;;17.44;31.97;102278.75;5008233;28;20048;-69
2021/03/02 08:13:40;;;;;;;25.30;13.93;;;;;;;16.70;32.50;102274.13;5006382;28;20082;-68
2021/03/02 08:16:13;;;;;;;21.15;12.45;;;;;;;17.11;32.68;102279.38;5010073;28;20504;-68
2021/03/02 08:18:44;;;;;;;20.77;12.38;;;;;;;17.17;32.47;102279.09;5011577;28;20073;-68
2021/03/02 08:21:21;;;;;;;20.00;13.82;;;;;;;17.31;33.17;102288.16;5012191;28;20042;-65
2021/03/02 08:23:55;;;;;;;25.73;13.25;;;;;;;18.22;31.46;102281.16;5006477;28;20045;-68
2021/03/02 08:26:31;;;;;;;24.35;12.10;;;;;;;18.02;31.40;102279.50;5007171;28;20045;-68
2021/03/02 08:29:17;;;;;;;21.73;12.75;;;;;;;18.13;31.83;102286.03;5005232;28;20551;-70
2021/03/02 08:31:49;;;;;;;20.02;13.90;;;;;;;18.70;31.27;102281.44;5006111;28;20410;-70
2021/03/02 08:34:18;;;;;;;22.60;14.32;;;;;;;18.80;31.46;102280.00;5010808;28;20034;-71
2021/03/02 08:36:52;;;;;;;21.52;14.75;;;;;;;18.94;29.54;102281.91;5011643;28;20050;-71
2021/03/02 08:39:20;;;;;;;27.33;14.60;;;;;;;19.18;30.01;102285.06;5008793;28;20117;-68
2021/03/02 08:41:49;;;;;;;21.40;15.60;;;;;;;19.13;29.01;102287.94;5008821;28;20950;-66
2021/03/02 08:44:21;;;;;;;25.27;14.82;;;;;;;19.61;27.98;102291.53;5005721;28;20046;-64
2021/03/02 08:46:55;;;;;;;23.55;14.52;;;;;;;20.08;26.92;102287.94;5007429;28;20088;-66
2021/03/02 08:49:22;;;;;;;25.08;15.30;;;;;;;19.65;26.60;102290.38;5006262;28;20072;-69
2021/03/02 08:51:57;;;;;;;21.60;12.77;;;;;;;19.88;25.15;102291.75;5006820;28;20038;-67
2021/03/02 08:54:23;;;;;;;15.70;12.00;;;;;;;20.21;24.06;102286.31;5005971;28;20038;-71
2021/03/02 08:57:03;;;;;;;17.60;13.13;;;;;;;20.09;23.37;102285.25;5010549;28;20073;-68
2021/03/02 08:59:31;;;;;;;19.20;13.82;;;;;;;20.86;22.92;102284.19;5006029;28;20057;-71
2021/03/02 09:01:57;;;;;;;20.13;13.98;;;;;;;20.83;22.75;102292.38;5011089;28;20734;-69
2021/03/02 09:04:31;;;;;;;23.20;15.10;;;;;;;19.98;23.73;102290.31;5007041;28;20045;-71
2021/03/02 09:06:58;;;;;;;15.48;12.23;;;;;;;20.73;23.22;102285.06;5004870;28;20073;-73
2021/03/02 09:09:25;;;;;;;19.05;13.00;;;;;;;20.05;23.91;102285.50;5007319;28;20053;-72
2021/03/02 09:11:54;;;;;;;15.85;13.32;;;;;;;20.41;23.64;102285.16;5006101;28;20081;-70
2021/03/02 09:14:22;;;;;;;18.67;13.85;;;;;;;20.42;23.71;102293.00;5008695;28;20121;-69
2021/03/02 09:16:51;;;;;;;16.08;13.82;;;;;;;19.76;24.31;102295.97;5011427;28;20128;-68
2021/03/02 09:19:32;;;;;;;19.05;13.93;;;;;;;19.50;24.93;102293.88;5014946;28;20397;-71
2021/03/02 09:22:10;;;;;;;20.80;14.57;;;;;;;19.36;25.64;102303.41;5016045;28;20038;-71
2021/03/02 09:24:48;;;;;;;16.95;14.05;;;;;;;18.65;26.94;102301.91;5008561;28;20133;-69
2021/03/02 09:27:17;;;;;;;21.65;13.93;;;;;;;18.14;28.12;102301.78;5008945;28;20046;-71
2021/03/02 09:29:45;;;;;;;18.05;13.48;;;;;;;16.95;30.09;102308.19;5007740;28;20066;-67
2021/03/02 09:32:14;;;;;;;20.23;14.50;;;;;;;16.44;30.88;102311.25;5009126;28;20396;-67
2021/03/02 09:34:46;;;;;;;25.02;13.57;;;;;;;16.60;31.11;102307.03;5011484;28;20137;-70
2021/03/02 09:37:15;;;;;;;15.48;13.25;;;;;;;16.30;31.22;102308.31;5011886;28;20045;-68
2021/03/02 09:40:03;;;;;;;17.50;14.38;;;;;;;15.96;32.37;102304.44;5012025;28;20423;-68
2021/03/02 09:42:32;;;;;;;26.20;15.23;;;;;;;15.73;32.76;102317.63;5011052;28;20129;-69
2021/03/02 09:45:01;;;;;;;23.02;15.00;;;;;;;15.44;32.47;102309.03;5014346;28;20038;-68
2021/03/02 09:47:32;;;;;;;28.63;14.98;;;;;;;15.47;33.00;102324.72;5010683;28;20041;-69
2021/03/02 09:50:05;;;;;;;21.40;13.80;;;;;;;15.17;33.45;102317.03;5010004;28;20049;-69
2021/03/02 09:52:39;;;;;;;18.35;12.85;;;;;;;15.21;33.72;102315.16;5008754;28;20069;-69
2021/03/02 09:55:18;;;;;;;19.23;13.30;;;;;;;15.12;34.07;102318.97;5008223;28;20522;-68
2021/03/02 09:58:15;;;;;;;14.98;13.40;;;;;;;14.88;34.87;102314.59;5008538;28;20050;-68
2021/03/02 10:01:01;;;;;;;22.05;15.63;;;;;;;14.73;34.56;102317.75;5005496;28;20128;-68
2021/03/02 10:03:37;;;;;;;18.17;13.73;;;;;;;14.82;34.85;102320.94;5006844;28;20534;-69
2021/03/02 10:06:05;;;;;;;21.63;15.20;;;;;;;14.87;34.82;102318.16;5007660;28;20488;-68
2021/03/02 10:08:37;;;;;;;20.02;15.73;;;;;;;14.75;34.70;102318.53;5006824;28;20133;-68
2021/03/02 10:11:13;;;;;;;22.17;14.82;;;;;;;14.42;35.09;102319.59;5010339;28;20042;-67
2021/03/02 10:13:45;;;;;;;18.08;14.60;;;;;;;14.54;34.65;102323.66;5009282;28;20038;-67
2021/03/02 10:16:38;;;;;;;20.13;14.75;;;;;;;14.57;34.80;102320.91;5009261;28;20046;-67
2021/03/02 10:19:21;;;;;;;19.88;13.07;;;;;;;14.81;34.98;102321.84;5008498;28;20544;-67
2021/03/02 10:21:52;;;;;;;21.13;14.52;;;;;;;14.50;35.22;102323.78;5009340;28;20125;-67
2021/03/02 10:24:28;;;;;;;20.58;14.30;;;;;;;14.56;35.22;102328.84;5007497;28;20180;-67
2021/03/02 10:26:59;;;;;;;18.30;14.27;;;;;;;14.62;35.11;102329.47;5007225;28;20141;-67
2021/03/02 10:29:27;;;;;;;23.67;15.35;;;;;;;14.68;35.27;102326.63;5007686;28;20065;-67
2021/03/02 10:31:53;;;;;;;16.98;13.60;;;;;;;14.59;35.73;102326.09;5008524;28;20120;-70
2021/03/02 10:34:20;;;;;;;24.02;14.02;;;;;;;14.58;36.43;102325.22;5006370;28;20530;-68
2021/03/02 10:36:53;;;;;;;16.58;13.95;;;;;;;14.52;36.46;102320.19;5007273;28;20049;-71
2021/03/02 10:39:20;;;;;;;23.58;14.10;;;;;;;14.58;36.19;102314.72;5007364;28;20120;-69
2021/03/02 10:41:47;;;;;;;20.42;15.52;;;;;;;14.35;36.64;102327.75;5008494;28;20038;-67
2021/03/02 10:44:16;;;;;;;22.08;14.73;;;;;;;14.66;35.74;102320.59;5013734;28;20432;-67
2021/03/02 10:46:43;;;;;;;17.75;14.93;;;;;;;14.73;35.98;102323.84;5010701;28;20049;-67
2021/03/02 10:49:10;;;;;;;21.00;15.88;;;;;;;14.80;35.50;102319.25;5008149;28;20495;-68
2021/03/02 10:51:37;;;;;;;17.38;14.38;;;;;;;14.86;35.98;102314.66;5007343;28;20124;-69
2021/03/02 10:54:04;;;;;;;21.15;15.23;;;;;;;14.59;35.29;102315.59;5009983;28;20419;-68
2021/03/02 10:56:31;;;;;;;23.05;14.70;;;;;;;14.71;34.90;102309.94;4983282;28;20033;-67
2021/03/02 10:58:58;;;;;;;20.35;15.27;;;;;;;14.59;36.03;102308.56;5041030;28;20152;-65
2021/03/02 11:01:24;;;;;;;18.80;15.40;;;;;;;14.57;36.25;102299.03;5027342;28;22100;-69
2021/03/02 11:03:52;;;;;;;23.27;15.73;;;;;;;14.71;36.60;102304.69;5026772;28;20479;-68
2021/03/02 11:06:20;;;;;;;17.67;14.63;;;;;;;14.79;36.24;102299.16;5026933;28;20069;-68
2021/03/02 11:08:59;;;;;;;19.45;14.85;;;;;;;14.72;36.16;102301.16;5026399;28;20091;-69
2021/03/02 11:11:26;;;;;;;25.95;15.45;;;;;;;14.60;35.99;102296.34;4991880;28;20077;-68
2021/03/02 11:13:53;;;;;;;18.45;14.25;;;;;;;14.63;36.50;102286.56;5007006;28;20428;-68
2021/03/02 11:16:19;;;;;;;19.45;14.10;;;;;;;14.77;36.58;102287.88;5007337;28;20068;-67
2021/03/02 11:18:49;;;;;;;16.90;14.80;;;;;;;14.75;36.71;102281.78;5006822;28;20044;-68
2021/03/02 11:21:15;;;;;;;18.05;14.05;;;;;;;14.79;36.66;102283.41;5007592;28;20042;-69
2021/03/02 11:23:42;;;;;;;17.20;14.23;;;;;;;14.89;36.28;102274.28;5006363;28;20574;-66
2021/03/02 11:26:09;;;;;;;25.20;14.75;;;;;;;14.90;35.85;102278.63;5007020;28;20042;-68
2021/03/02 11:28:36;;;;;;;23.88;16.15;;;;;;;14.80;35.71;102272.00;5010163;28;20064;-68
2021/03/02 11:31:03;;;;;;;23.23;15.50;;;;;;;14.87;35.61;102270.88;5007658;28;20152;-68
2021/03/02 11:33:30;;;;;;;22.08;16.48;;;;;;;14.90;35.85;102273.38;5007709;28;20408;-69
2021/03/02 11:35:57;;;;;;;21.88;15.40;;;;;;;14.82;36.30;102265.78;5007277;28;20062;-68
2021/03/02 11:38:23;;;;;;;30.65;16.90;;;;;;;14.76;36.40;102265.16;5007147;28;20053;-68